sensor_id;sensor_type;location;lat;lon;timestamp;pressure;altitude;pressure_sealevel;temperature;humidity
45621;BME280;31345;51.522;10.702;2023-04-27T00:01:17;99382.81;;;0.03;100.00
45621;BME280;31345;51.522;10.702;2023-04-27T00:03:46;99373.44;;;-0.01;100.00
45621;BME280;31345;51.522;10.702;2023-04-27T00:06:19;99373.56;;;-0.09;100.00
45621;BME280;31345;51.522;10.702;2023-04-27T00:08:47;99375.94;;;0.04;100.00
45621;BME280;31345;51.522;10.702;2023-04-27T00:11:14;99380.22;;;0.03;100.00
45621;BME280;31345;51.522;10.702;2023-04-27T00:13:47;99377.63;;;0.06;100.00
45621;BME280;31345;51.522;10.702;2023-04-27T00:16:20;99370.38;;;0.27;100.00
45621;BME280;31345;51.522;10.702;2023-04-27T00:18:49;99376.91;;;0.44;100.00
45621;BME280;31345;51.522;10.702;2023-04-27T00:21:22;99374.53;;;0.35;100.00
45621;BME280;31345;51.522;10.702;2023-04-27T00:23:55;99374.91;;;0.13;100.00
45621;BME280;31345;51.522;10.702;2023-04-27T00:26:28;99377.47;;;0.13;100.00
45621;BME280;31345;51.522;10.702;2023-04-27T00:29:01;99378.44;;;0.07;100.00
45621;BME280;31345;51.522;10.702;2023-04-27T00:31:28;99379.31;;;0.06;100.00
45621;BME280;31345;51.522;10.702;2023-04-27T00:34:02;99388.63;;;0.13;100.00
45621;BME280;31345;51.522;10.702;2023-04-27T00:36:35;99383.16;;;0.32;100.00
45621;BME280;31345;51.522;10.702;2023-04-27T00:39:03;99387.63;;;0.22;100.00
45621;BME280;31345;51.522;10.702;2023-04-27T00:41:37;99381.53;;;-0.24;100.00
45621;BME280;31345;51.522;10.702;2023-04-27T00:44:05;99385.56;;;-0.60;100.00
45621;BME280;31345;51.522;10.702;2023-04-27T00:46:35;99385.44;;;-0.53;100.00
45621;BME280;31345;51.522;10.702;2023-04-27T00:49:04;99383.13;;;-0.17;100.00
45621;BME280;31345;51.522;10.702;2023-04-27T00:51:37;99376.81;;;0.03;100.00
45621;BME280;31345;51.522;10.702;2023-04-27T00:54:11;99384.47;;;0.06;100.00
45621;BME280;31345;51.522;10.702;2023-04-27T00:56:39;99390.16;;;-0.28;100.00
45621;BME280;31345;51.522;10.702;2023-04-27T00:59:07;99380.91;;;-0.37;100.00
45621;BME280;31345;51.522;10.702;2023-04-27T01:01:40;99374.03;;;-0.37;100.00
45621;BME280;31345;51.522;10.702;2023-04-27T01:04:14;99383.56;;;-0.42;100.00
45621;BME280;31345;51.522;10.702;2023-04-27T01:06:43;99371.56;;;-0.41;100.00
45621;BME280;31345;51.522;10.702;2023-04-27T01:09:16;99371.59;;;-0.45;100.00
45621;BME280;31345;51.522;10.702;2023-04-27T01:11:50;99369.50;;;-0.21;100.00
45621;BME280;31345;51.522;10.702;2023-04-27T01:14:17;99376.94;;;-0.05;100.00
45621;BME280;31345;51.522;10.702;2023-04-27T01:16:45;99382.97;;;-0.06;100.00
45621;BME280;31345;51.522;10.702;2023-04-27T01:19:20;99384.63;;;-0.03;100.00
45621;BME280;31345;51.522;10.702;2023-04-27T01:21:49;99386.69;;;-0.24;100.00
45621;BME280;31345;51.522;10.702;2023-04-27T01:24:23;99383.69;;;-0.50;100.00
45621;BME280;31345;51.522;10.702;2023-04-27T01:26:56;99377.16;;;-0.71;100.00
45621;BME280;31345;51.522;10.702;2023-04-27T01:29:29;99382.38;;;-0.79;100.00
45621;BME280;31345;51.522;10.702;2023-04-27T01:32:01;99388.22;;;-0.69;100.00
45621;BME280;31345;51.522;10.702;2023-04-27T01:34:35;99387.06;;;-0.48;100.00
45621;BME280;31345;51.522;10.702;2023-04-27T01:37:07;99392.47;;;-0.66;100.00
45621;BME280;31345;51.522;10.702;2023-04-27T01:39:42;99382.38;;;-0.79;100.00
45621;BME280;31345;51.522;10.702;2023-04-27T01:42:14;99386.38;;;-0.59;100.00
45621;BME280;31345;51.522;10.702;2023-04-27T01:44:47;99388.94;;;-0.58;100.00
45621;BME280;31345;51.522;10.702;2023-04-27T01:47:15;99388.34;;;-0.75;100.00
45621;BME280;31345;51.522;10.702;2023-04-27T01:49:48;99388.31;;;-0.72;100.00
45621;BME280;31345;51.522;10.702;2023-04-27T01:52:19;99398.41;;;-0.61;100.00
45621;BME280;31345;51.522;10.702;2023-04-27T01:54:53;99394.50;;;-0.87;100.00
45621;BME280;31345;51.522;10.702;2023-04-27T01:57:22;99391.19;;;-0.97;100.00
45621;BME280;31345;51.522;10.702;2023-04-27T01:59:55;99397.00;;;-0.83;100.00
45621;BME280;31345;51.522;10.702;2023-04-27T02:02:23;99407.88;;;-0.66;100.00
45621;BME280;31345;51.522;10.702;2023-04-27T02:04:55;99402.44;;;-0.45;100.00
45621;BME280;31345;51.522;10.702;2023-04-27T02:07:23;99404.22;;;-0.48;100.00
45621;BME280;31345;51.522;10.702;2023-04-27T02:09:57;99409.69;;;-0.73;100.00
45621;BME280;31345;51.522;10.702;2023-04-27T02:12:30;99413.31;;;-0.87;100.00
45621;BME280;31345;51.522;10.702;2023-04-27T02:14:59;99410.97;;;-1.04;100.00
45621;BME280;31345;51.522;10.702;2023-04-27T02:17:33;99416.78;;;-0.89;100.00
45621;BME280;31345;51.522;10.702;2023-04-27T02:20:06;99412.13;;;-0.62;100.00
45621;BME280;31345;51.522;10.702;2023-04-27T02:22:40;99416.44;;;-0.64;100.00
45621;BME280;31345;51.522;10.702;2023-04-27T02:25:11;99417.56;;;-0.84;100.00
45621;BME280;31345;51.522;10.702;2023-04-27T02:27:44;99425.38;;;-0.92;100.00
45621;BME280;31345;51.522;10.702;2023-04-27T02:30:18;99427.09;;;-0.94;100.00
45621;BME280;31345;51.522;10.702;2023-04-27T02:32:51;99419.94;;;-0.72;100.00
45621;BME280;31345;51.522;10.702;2023-04-27T02:35:24;99426.16;;;-0.87;100.00
45621;BME280;31345;51.522;10.702;2023-04-27T02:37:58;99423.97;;;-0.53;100.00
45621;BME280;31345;51.522;10.702;2023-04-27T02:40:27;99425.56;;;-0.46;100.00
45621;BME280;31345;51.522;10.702;2023-04-27T02:43:00;99429.00;;;-0.46;100.00
45621;BME280;31345;51.522;10.702;2023-04-27T02:45:35;99425.97;;;-0.74;100.00
45621;BME280;31345;51.522;10.702;2023-04-27T02:48:05;99441.31;;;-0.68;100.00
45621;BME280;31345;51.522;10.702;2023-04-27T02:50:39;99437.72;;;-0.58;100.00
45621;BME280;31345;51.522;10.702;2023-04-27T02:53:13;99441.72;;;-0.38;100.00
45621;BME280;31345;51.522;10.702;2023-04-27T02:55:47;99437.22;;;-0.23;100.00
45621;BME280;31345;51.522;10.702;2023-04-27T02:58:20;99430.75;;;-0.49;100.00
45621;BME280;31345;51.522;10.702;2023-04-27T03:00:53;99431.75;;;-0.58;100.00
45621;BME280;31345;51.522;10.702;2023-04-27T03:03:26;99433.69;;;-0.74;100.00
45621;BME280;31345;51.522;10.702;2023-04-27T03:05:59;99442.19;;;-0.71;100.00
45621;BME280;31345;51.522;10.702;2023-04-27T03:08:26;99443.81;;;-0.65;100.00
45621;BME280;31345;51.522;10.702;2023-04-27T03:11:00;99457.25;;;-0.46;100.00
45621;BME280;31345;51.522;10.702;2023-04-27T03:13:33;99455.44;;;-0.37;100.00
45621;BME280;31345;51.522;10.702;2023-04-27T03:16:08;99448.25;;;-0.16;100.00
45621;BME280;31345;51.522;10.702;2023-04-27T03:18:36;99452.56;;;-0.19;100.00
45621;BME280;31345;51.522;10.702;2023-04-27T03:21:10;99457.91;;;-0.33;100.00
45621;BME280;31345;51.522;10.702;2023-04-27T03:23:42;99460.34;;;-0.23;100.00
45621;BME280;31345;51.522;10.702;2023-04-27T03:26:17;99461.91;;;-0.14;100.00
45621;BME280;31345;51.522;10.702;2023-04-27T03:28:50;99459.28;;;-0.10;100.00
45621;BME280;31345;51.522;10.702;2023-04-27T03:31:19;99463.44;;;-0.02;100.00
45621;BME280;31345;51.522;10.702;2023-04-27T03:33:52;99462.47;;;0.05;100.00
45621;BME280;31345;51.522;10.702;2023-04-27T03:36:26;99460.13;;;-0.09;100.00
45621;BME280;31345;51.522;10.702;2023-04-27T03:39:00;99465.44;;;-0.20;100.00
45621;BME280;31345;51.522;10.702;2023-04-27T03:41:34;99461.88;;;-0.13;100.00
45621;BME280;31345;51.522;10.702;2023-04-27T03:44:07;99462.66;;;-0.06;100.00
45621;BME280;31345;51.522;10.702;2023-04-27T03:46:35;99461.97;;;-0.17;100.00
45621;BME280;31345;51.522;10.702;2023-04-27T03:49:08;99459.34;;;-0.14;100.00
45621;BME280;31345;51.522;10.702;2023-04-27T03:51:41;99459.09;;;0.01;100.00
45621;BME280;31345;51.522;10.702;2023-04-27T03:54:14;99460.81;;;0.02;100.00
45621;BME280;31345;51.522;10.702;2023-04-27T03:56:48;99465.75;;;0.13;100.00
45621;BME280;31345;51.522;10.702;2023-04-27T03:59:23;99461.50;;;0.12;100.00
45621;BME280;31345;51.522;10.702;2023-04-27T04:01:57;99464.13;;;0.09;100.00
45621;BME280;31345;51.522;10.702;2023-04-27T04:04:24;99465.75;;;0.15;100.00
45621;BME280;31345;51.522;10.702;2023-04-27T04:06:52;99464.66;;;0.27;100.00
45621;BME280;31345;51.522;10.702;2023-04-27T04:09:25;99467.56;;;0.08;100.00
45621;BME280;31345;51.522;10.702;2023-04-27T04:12:00;99456.44;;;0.07;100.00
45621;BME280;31345;51.522;10.702;2023-04-27T04:14:34;99459.84;;;0.08;100.00
45621;BME280;31345;51.522;10.702;2023-04-27T04:17:01;99463.19;;;0.13;100.00
45621;BME280;31345;51.522;10.702;2023-04-27T04:19:34;99461.41;;;0.17;100.00
45621;BME280;31345;51.522;10.702;2023-04-27T04:22:06;99465.56;;;0.24;100.00
45621;BME280;31345;51.522;10.702;2023-04-27T04:24:34;99463.75;;;0.29;100.00
45621;BME280;31345;51.522;10.702;2023-04-27T04:27:09;99463.13;;;0.18;100.00
45621;BME280;31345;51.522;10.702;2023-04-27T04:29:36;99460.47;;;0.21;100.00
45621;BME280;31345;51.522;10.702;2023-04-27T04:32:10;99459.63;;;0.22;100.00
45621;BME280;31345;51.522;10.702;2023-04-27T04:34:43;99465.00;;;0.08;100.00
45621;BME280;31345;51.522;10.702;2023-04-27T04:37:22;99465.59;;;0.23;100.00
45621;BME280;31345;51.522;10.702;2023-04-27T04:39:51;99460.44;;;0.24;100.00
45621;BME280;31345;51.522;10.702;2023-04-27T04:42:25;99459.44;;;0.33;100.00
45621;BME280;31345;51.522;10.702;2023-04-27T04:44:58;99465.50;;;0.29;100.00
45621;BME280;31345;51.522;10.702;2023-04-27T04:47:31;99466.28;;;0.32;100.00
45621;BME280;31345;51.522;10.702;2023-04-27T04:50:00;99461.03;;;0.39;100.00
45621;BME280;31345;51.522;10.702;2023-04-27T04:52:35;99462.78;;;0.37;100.00
45621;BME280;31345;51.522;10.702;2023-04-27T04:55:09;99466.03;;;0.46;100.00
45621;BME280;31345;51.522;10.702;2023-04-27T04:57:43;99463.88;;;0.25;100.00
45621;BME280;31345;51.522;10.702;2023-04-27T05:00:16;99466.44;;;0.23;100.00
45621;BME280;31345;51.522;10.702;2023-04-27T05:02:50;99466.66;;;0.12;100.00
45621;BME280;31345;51.522;10.702;2023-04-27T05:05:24;99461.53;;;0.09;100.00
45621;BME280;31345;51.522;10.702;2023-04-27T05:07:56;99468.09;;;0.27;100.00
45621;BME280;31345;51.522;10.702;2023-04-27T05:10:29;99467.94;;;0.35;100.00
45621;BME280;31345;51.522;10.702;2023-04-27T05:12:58;99471.25;;;0.42;100.00
45621;BME280;31345;51.522;10.702;2023-04-27T05:15:31;99468.53;;;0.51;100.00
45621;BME280;31345;51.522;10.702;2023-04-27T05:18:03;99479.06;;;0.39;100.00
45621;BME280;31345;51.522;10.702;2023-04-27T05:20:36;99470.38;;;0.44;100.00
45621;BME280;31345;51.522;10.702;2023-04-27T05:23:04;99477.09;;;0.52;100.00
45621;BME280;31345;51.522;10.702;2023-04-27T05:25:37;99473.69;;;0.50;100.00
45621;BME280;31345;51.522;10.702;2023-04-27T05:28:13;99484.94;;;0.44;100.00
45621;BME280;31345;51.522;10.702;2023-04-27T05:30:46;99497.75;;;0.49;100.00
45621;BME280;31345;51.522;10.702;2023-04-27T05:33:19;99498.19;;;0.71;100.00
45621;BME280;31345;51.522;10.702;2023-04-27T05:35:53;99499.66;;;0.84;100.00
45621;BME280;31345;51.522;10.702;2023-04-27T05:38:25;99515.72;;;0.97;100.00
45621;BME280;31345;51.522;10.702;2023-04-27T05:40:59;99512.84;;;1.13;100.00
45621;BME280;31345;51.522;10.702;2023-04-27T05:43:28;99509.94;;;1.29;100.00
45621;BME280;31345;51.522;10.702;2023-04-27T05:46:00;99518.38;;;1.35;100.00
45621;BME280;31345;51.522;10.702;2023-04-27T05:48:28;99512.09;;;1.49;100.00
45621;BME280;31345;51.522;10.702;2023-04-27T05:51:01;99510.13;;;1.60;100.00
45621;BME280;31345;51.522;10.702;2023-04-27T05:53:35;99513.22;;;1.77;100.00
45621;BME280;31345;51.522;10.702;2023-04-27T05:56:07;99515.56;;;1.86;100.00
45621;BME280;31345;51.522;10.702;2023-04-27T05:58:43;99518.59;;;2.04;100.00
45621;BME280;31345;51.522;10.702;2023-04-27T06:01:16;99523.56;;;2.13;100.00
45621;BME280;31345;51.522;10.702;2023-04-27T06:03:44;99527.78;;;2.16;100.00
45621;BME280;31345;51.522;10.702;2023-04-27T06:06:17;99522.47;;;2.22;100.00
45621;BME280;31345;51.522;10.702;2023-04-27T06:08:49;99521.34;;;2.32;100.00
45621;BME280;31345;51.522;10.702;2023-04-27T06:11:23;99526.41;;;2.37;100.00
45621;BME280;31345;51.522;10.702;2023-04-27T06:13:57;99514.47;;;2.33;100.00
45621;BME280;31345;51.522;10.702;2023-04-27T06:16:30;99520.16;;;2.46;100.00
45621;BME280;31345;51.522;10.702;2023-04-27T06:19:03;99522.97;;;2.70;100.00
45621;BME280;31345;51.522;10.702;2023-04-27T06:21:35;99516.06;;;2.72;100.00
45621;BME280;31345;51.522;10.702;2023-04-27T06:24:08;99512.25;;;2.85;100.00
45621;BME280;31345;51.522;10.702;2023-04-27T06:26:41;99518.94;;;2.92;100.00
45621;BME280;31345;51.522;10.702;2023-04-27T06:29:15;99526.56;;;2.97;100.00
45621;BME280;31345;51.522;10.702;2023-04-27T06:31:48;99527.75;;;3.17;100.00
45621;BME280;31345;51.522;10.702;2023-04-27T06:34:20;99523.75;;;3.37;100.00
45621;BME280;31345;51.522;10.702;2023-04-27T06:36:53;99530.16;;;3.53;100.00
45621;BME280;31345;51.522;10.702;2023-04-27T06:39:26;99522.78;;;3.69;100.00
45621;BME280;31345;51.522;10.702;2023-04-27T06:41:59;99525.06;;;3.80;100.00
45621;BME280;31345;51.522;10.702;2023-04-27T06:44:33;99523.81;;;3.92;100.00
45621;BME280;31345;51.522;10.702;2023-04-27T06:47:05;99519.28;;;3.99;100.00
45621;BME280;31345;51.522;10.702;2023-04-27T06:49:38;99526.66;;;4.12;100.00
45621;BME280;31345;51.522;10.702;2023-04-27T06:52:11;99532.38;;;4.21;100.00
45621;BME280;31345;51.522;10.702;2023-04-27T06:54:46;99527.59;;;4.36;100.00
45621;BME280;31345;51.522;10.702;2023-04-27T06:57:17;99521.81;;;4.55;100.00
45621;BME280;31345;51.522;10.702;2023-04-27T06:59:51;99519.63;;;4.68;100.00
45621;BME280;31345;51.522;10.702;2023-04-27T07:02:24;99519.44;;;4.74;100.00
45621;BME280;31345;51.522;10.702;2023-04-27T07:04:56;99522.53;;;4.84;100.00
45621;BME280;31345;51.522;10.702;2023-04-27T07:07:29;99524.59;;;5.00;100.00
45621;BME280;31345;51.522;10.702;2023-04-27T07:10:02;99532.09;;;5.07;100.00
45621;BME280;31345;51.522;10.702;2023-04-27T07:12:35;99536.50;;;5.29;100.00
45621;BME280;31345;51.522;10.702;2023-04-27T07:15:05;99528.00;;;5.48;100.00
45621;BME280;31345;51.522;10.702;2023-04-27T07:17:38;99523.50;;;5.53;100.00
45621;BME280;31345;51.522;10.702;2023-04-27T07:20:11;99528.59;;;5.79;99.62
45621;BME280;31345;51.522;10.702;2023-04-27T07:22:45;99530.34;;;6.00;99.01
45621;BME280;31345;51.522;10.702;2023-04-27T07:25:14;99533.09;;;6.18;98.59
45621;BME280;31345;51.522;10.702;2023-04-27T07:27:46;99516.25;;;6.28;96.02
45621;BME280;31345;51.522;10.702;2023-04-27T07:30:21;99517.81;;;6.53;98.64
45621;BME280;31345;51.522;10.702;2023-04-27T07:32:54;99514.09;;;6.80;99.66
45621;BME280;31345;51.522;10.702;2023-04-27T07:35:22;99508.34;;;6.92;99.06
45621;BME280;31345;51.522;10.702;2023-04-27T07:37:51;99506.06;;;7.05;96.00
45621;BME280;31345;51.522;10.702;2023-04-27T07:40:19;99506.00;;;7.26;95.29
45621;BME280;31345;51.522;10.702;2023-04-27T07:42:55;99503.63;;;7.41;93.24
45621;BME280;31345;51.522;10.702;2023-04-27T07:45:30;99501.16;;;7.38;89.22
45621;BME280;31345;51.522;10.702;2023-04-27T07:48:03;99499.41;;;7.19;90.47
45621;BME280;31345;51.522;10.702;2023-04-27T07:50:36;99510.38;;;7.26;90.74
45621;BME280;31345;51.522;10.702;2023-04-27T07:53:09;99515.78;;;7.40;89.53
45621;BME280;31345;51.522;10.702;2023-04-27T07:55:41;99509.47;;;7.65;91.86
45621;BME280;31345;51.522;10.702;2023-04-27T07:58:15;99509.63;;;7.99;89.45
45621;BME280;31345;51.522;10.702;2023-04-27T08:00:44;99504.50;;;8.15;88.86
45621;BME280;31345;51.522;10.702;2023-04-27T08:03:17;99509.50;;;8.38;85.95
45621;BME280;31345;51.522;10.702;2023-04-27T08:05:49;99499.78;;;8.41;85.07
45621;BME280;31345;51.522;10.702;2023-04-27T08:08:22;99505.34;;;8.16;81.51
45621;BME280;31345;51.522;10.702;2023-04-27T08:10:54;99505.44;;;8.50;83.46
45621;BME280;31345;51.522;10.702;2023-04-27T08:13:27;99507.56;;;8.24;77.21
45621;BME280;31345;51.522;10.702;2023-04-27T08:16:01;99506.72;;;8.58;77.23
45621;BME280;31345;51.522;10.702;2023-04-27T08:18:33;99511.84;;;8.60;78.87
45621;BME280;31345;51.522;10.702;2023-04-27T08:21:06;99511.44;;;8.85;77.45
45621;BME280;31345;51.522;10.702;2023-04-27T08:23:39;99522.44;;;9.08;82.13
45621;BME280;31345;51.522;10.702;2023-04-27T08:26:13;99520.03;;;9.21;84.63
45621;BME280;31345;51.522;10.702;2023-04-27T08:28:46;99527.28;;;9.48;78.84
45621;BME280;31345;51.522;10.702;2023-04-27T08:31:21;99523.41;;;9.40;75.01
45621;BME280;31345;51.522;10.702;2023-04-27T08:33:48;99525.59;;;9.31;76.73
45621;BME280;31345;51.522;10.702;2023-04-27T08:36:21;99520.66;;;9.09;78.71
45621;BME280;31345;51.522;10.702;2023-04-27T08:38:55;99523.81;;;9.32;79.12
45621;BME280;31345;51.522;10.702;2023-04-27T08:41:27;99514.66;;;9.57;78.14
45621;BME280;31345;51.522;10.702;2023-04-27T08:44:00;99506.06;;;9.55;75.29
45621;BME280;31345;51.522;10.702;2023-04-27T08:46:35;99514.81;;;9.37;75.09
45621;BME280;31345;51.522;10.702;2023-04-27T08:49:08;99512.03;;;9.73;73.96
45621;BME280;31345;51.522;10.702;2023-04-27T08:51:36;99509.84;;;9.49;77.47
45621;BME280;31345;51.522;10.702;2023-04-27T08:54:08;99501.50;;;9.58;73.08
45621;BME280;31345;51.522;10.702;2023-04-27T08:56:41;99498.75;;;9.61;75.09
45621;BME280;31345;51.522;10.702;2023-04-27T08:59:13;99498.53;;;9.81;74.01
45621;BME280;31345;51.522;10.702;2023-04-27T09:01:48;99494.91;;;9.99;73.37
45621;BME280;31345;51.522;10.702;2023-04-27T09:04:21;99497.59;;;10.14;74.11
45621;BME280;31345;51.522;10.702;2023-04-27T09:06:48;99488.06;;;10.58;72.50
45621;BME280;31345;51.522;10.702;2023-04-27T09:09:22;99484.84;;;10.69;69.18
45621;BME280;31345;51.522;10.702;2023-04-27T09:11:55;99497.41;;;10.62;75.22
45621;BME280;31345;51.522;10.702;2023-04-27T09:14:27;99490.53;;;10.90;69.02
45621;BME280;31345;51.522;10.702;2023-04-27T09:17:02;99490.44;;;10.77;72.31
45621;BME280;31345;51.522;10.702;2023-04-27T09:19:34;99494.44;;;10.69;72.07
45621;BME280;31345;51.522;10.702;2023-04-27T09:22:09;99497.47;;;10.32;67.55
45621;BME280;31345;51.522;10.702;2023-04-27T09:24:49;99494.03;;;10.31;69.28
45621;BME280;31345;51.522;10.702;2023-04-27T09:27:18;99490.41;;;10.48;65.28
45621;BME280;31345;51.522;10.702;2023-04-27T09:29:46;99485.50;;;10.73;65.52
45621;BME280;31345;51.522;10.702;2023-04-27T09:32:20;99487.63;;;10.66;62.07
45621;BME280;31345;51.522;10.702;2023-04-27T09:34:48;99484.16;;;10.65;65.87
45621;BME280;31345;51.522;10.702;2023-04-27T09:37:21;99487.16;;;10.74;66.46
45621;BME280;31345;51.522;10.702;2023-04-27T09:39:54;99484.09;;;10.96;69.16
45621;BME280;31345;51.522;10.702;2023-04-27T09:42:22;99487.34;;;11.14;68.60
45621;BME280;31345;51.522;10.702;2023-04-27T09:44:55;99478.44;;;11.17;64.95
45621;BME280;31345;51.522;10.702;2023-04-27T09:47:29;99475.28;;;11.26;65.75
45621;BME280;31345;51.522;10.702;2023-04-27T09:49:58;99472.22;;;11.20;61.73
45621;BME280;31345;51.522;10.702;2023-04-27T09:52:33;99487.97;;;11.33;69.21
45621;BME280;31345;51.522;10.702;2023-04-27T09:55:08;99479.34;;;11.45;65.41
45621;BME280;31345;51.522;10.702;2023-04-27T09:57:50;99471.38;;;11.47;57.27
45621;BME280;31345;51.522;10.702;2023-04-27T10:00:27;99475.66;;;11.62;64.05
45621;BME280;31345;51.522;10.702;2023-04-27T10:03:12;99471.66;;;11.56;62.64
45621;BME280;31345;51.522;10.702;2023-04-27T10:06:33;99465.16;;;11.62;61.05
45621;BME280;31345;51.522;10.702;2023-04-27T10:09:06;99476.63;;;11.47;60.91
45621;BME280;31345;51.522;10.702;2023-04-27T10:11:37;99464.97;;;11.65;60.53
45621;BME280;31345;51.522;10.702;2023-04-27T10:14:06;99468.56;;;11.22;59.04
45621;BME280;31345;51.522;10.702;2023-04-27T10:16:43;99468.47;;;11.09;57.19
45621;BME280;31345;51.522;10.702;2023-04-27T10:19:19;99468.28;;;11.12;57.85
45621;BME280;31345;51.522;10.702;2023-04-27T10:21:55;99474.94;;;11.60;56.78
45621;BME280;31345;51.522;10.702;2023-04-27T10:24:35;99478.78;;;11.40;57.23
45621;BME280;31345;51.522;10.702;2023-04-27T10:27:10;99478.19;;;11.91;58.64
45621;BME280;31345;51.522;10.702;2023-04-27T10:29:45;99466.72;;;12.20;53.00
45621;BME280;31345;51.522;10.702;2023-04-27T10:32:20;99457.50;;;12.14;56.48
45621;BME280;31345;51.522;10.702;2023-04-27T10:35:03;99468.22;;;12.37;50.43
45621;BME280;31345;51.522;10.702;2023-04-27T10:37:39;99461.94;;;12.40;53.98
45621;BME280;31345;51.522;10.702;2023-04-27T10:40:08;99474.19;;;12.39;54.55
45621;BME280;31345;51.522;10.702;2023-04-27T10:42:47;99460.88;;;12.16;52.23
45621;BME280;31345;51.522;10.702;2023-04-27T10:45:26;99464.13;;;12.33;53.79
45621;BME280;31345;51.522;10.702;2023-04-27T10:48:00;99465.50;;;12.39;53.80
45621;BME280;31345;51.522;10.702;2023-04-27T10:50:34;99471.03;;;12.21;54.35
45621;BME280;31345;51.522;10.702;2023-04-27T10:53:09;99462.84;;;11.85;50.50
45621;BME280;31345;51.522;10.702;2023-04-27T10:55:41;99460.44;;;12.10;52.60
45621;BME280;31345;51.522;10.702;2023-04-27T10:58:10;99462.41;;;12.06;52.28
45621;BME280;31345;51.522;10.702;2023-04-27T11:00:43;99453.03;;;12.29;52.27
45621;BME280;31345;51.522;10.702;2023-04-27T11:03:22;99453.13;;;12.28;55.24
45621;BME280;31345;51.522;10.702;2023-04-27T11:06:00;99459.38;;;12.25;53.45
45621;BME280;31345;51.522;10.702;2023-04-27T11:08:30;99456.34;;;12.18;50.97
45621;BME280;31345;51.522;10.702;2023-04-27T11:11:13;99449.78;;;12.39;46.80
45621;BME280;31345;51.522;10.702;2023-04-27T11:13:49;99459.41;;;12.77;49.32
45621;BME280;31345;51.522;10.702;2023-04-27T11:16:23;99459.19;;;12.80;51.76
45621;BME280;31345;51.522;10.702;2023-04-27T11:18:51;99456.91;;;12.50;46.70
45621;BME280;31345;51.522;10.702;2023-04-27T11:21:20;99458.34;;;12.15;51.16
45621;BME280;31345;51.522;10.702;2023-04-27T11:23:48;99455.44;;;12.45;51.87
45621;BME280;31345;51.522;10.702;2023-04-27T11:26:22;99454.38;;;12.61;52.08
45621;BME280;31345;51.522;10.702;2023-04-27T11:28:57;99443.06;;;12.34;50.83
45621;BME280;31345;51.522;10.702;2023-04-27T11:31:39;99450.78;;;11.82;52.14
45621;BME280;31345;51.522;10.702;2023-04-27T11:34:14;99448.59;;;12.17;50.18
45621;BME280;31345;51.522;10.702;2023-04-27T11:36:59;99447.13;;;12.65;51.24
45621;BME280;31345;51.522;10.702;2023-04-27T11:39:32;99456.47;;;12.95;53.77
45621;BME280;31345;51.522;10.702;2023-04-27T11:42:16;99451.31;;;12.80;47.75
45621;BME280;31345;51.522;10.702;2023-04-27T11:44:53;99446.81;;;12.95;51.63
45621;BME280;31345;51.522;10.702;2023-04-27T11:47:28;99444.19;;;12.95;48.29
45621;BME280;31345;51.522;10.702;2023-04-27T11:50:04;99437.84;;;13.11;45.19
45621;BME280;31345;51.522;10.702;2023-04-27T11:52:40;99441.00;;;13.16;49.17
45621;BME280;31345;51.522;10.702;2023-04-27T11:55:08;99442.63;;;12.80;45.09
45621;BME280;31345;51.522;10.702;2023-04-27T11:57:41;99437.19;;;13.20;47.95
45621;BME280;31345;51.522;10.702;2023-04-27T12:00:14;99437.78;;;13.37;46.52
45621;BME280;31345;51.522;10.702;2023-04-27T12:02:43;99434.41;;;13.35;46.75
45621;BME280;31345;51.522;10.702;2023-04-27T12:05:11;99442.06;;;13.38;47.55
45621;BME280;31345;51.522;10.702;2023-04-27T12:07:45;99448.88;;;13.41;44.98
45621;BME280;31345;51.522;10.702;2023-04-27T12:10:17;99447.06;;;13.54;50.54
45621;BME280;31345;51.522;10.702;2023-04-27T12:12:50;99445.81;;;13.60;49.95
45621;BME280;31345;51.522;10.702;2023-04-27T12:15:18;99443.72;;;13.77;46.08
45621;BME280;31345;51.522;10.702;2023-04-27T12:17:51;99445.38;;;13.29;43.74
45621;BME280;31345;51.522;10.702;2023-04-27T12:20:23;99448.97;;;13.15;44.14
45621;BME280;31345;51.522;10.702;2023-04-27T12:22:53;99438.53;;;13.50;46.83
45621;BME280;31345;51.522;10.702;2023-04-27T12:25:20;99439.03;;;13.31;46.65
45621;BME280;31345;51.522;10.702;2023-04-27T12:27:48;99432.19;;;13.42;47.83
45621;BME280;31345;51.522;10.702;2023-04-27T12:30:15;99430.44;;;13.54;48.13
45621;BME280;31345;51.522;10.702;2023-04-27T12:32:48;99429.81;;;13.63;47.18
45621;BME280;31345;51.522;10.702;2023-04-27T12:35:21;99429.34;;;14.05;45.67
45621;BME280;31345;51.522;10.702;2023-04-27T12:37:48;99420.69;;;14.27;46.30
45621;BME280;31345;51.522;10.702;2023-04-27T12:40:24;99418.75;;;14.18;43.54
45621;BME280;31345;51.522;10.702;2023-04-27T12:42:56;99406.13;;;13.87;39.67
45621;BME280;31345;51.522;10.702;2023-04-27T12:45:30;99408.03;;;13.85;39.72
45621;BME280;31345;51.522;10.702;2023-04-27T12:48:02;99404.78;;;14.18;42.92
45621;BME280;31345;51.522;10.702;2023-04-27T12:50:31;99407.34;;;14.53;45.43
45621;BME280;31345;51.522;10.702;2023-04-27T12:52:58;99398.31;;;14.10;39.47
45621;BME280;31345;51.522;10.702;2023-04-27T12:55:32;99404.06;;;14.16;44.72
45621;BME280;31345;51.522;10.702;2023-04-27T12:58:01;99400.69;;;14.02;42.28
45621;BME280;31345;51.522;10.702;2023-04-27T13:00:34;99400.09;;;13.62;43.18
45621;BME280;31345;51.522;10.702;2023-04-27T13:03:06;99398.25;;;13.87;48.86
45621;BME280;31345;51.522;10.702;2023-04-27T13:05:39;99405.03;;;13.79;48.39
45621;BME280;31345;51.522;10.702;2023-04-27T13:08:12;99392.47;;;13.71;45.04
45621;BME280;31345;51.522;10.702;2023-04-27T13:10:46;99396.88;;;14.06;48.62
45621;BME280;31345;51.522;10.702;2023-04-27T13:13:14;99397.53;;;14.44;47.51
45621;BME280;31345;51.522;10.702;2023-04-27T13:15:41;99398.59;;;14.53;45.12